sensor_id;sensor_type;location;lat;lon;timestamp;P1;durP1;ratioP1;P2;durP2;ratioP2
34836;SDS011;21053;50.848;4.652;2023-12-20T00:02:06;211.32;;;193.18;;
34836;SDS011;21053;50.848;4.652;2023-12-20T00:04:37;198.82;;;181.45;;
34836;SDS011;21053;50.848;4.652;2023-12-20T00:07:04;215.60;;;197.25;;
34836;SDS011;21053;50.848;4.652;2023-12-20T00:09:31;192.40;;;175.98;;
34836;SDS011;21053;50.848;4.652;2023-12-20T00:11:57;201.43;;;183.20;;
34836;SDS011;21053;50.848;4.652;2023-12-20T00:14:24;187.68;;;171.52;;
34836;SDS011;21053;50.848;4.652;2023-12-20T00:16:49;204.85;;;185.20;;
34836;SDS011;21053;50.848;4.652;2023-12-20T00:21:44;208.88;;;191.13;;
34836;SDS011;21053;50.848;4.652;2023-12-20T00:26:39;167.50;;;153.13;;
34836;SDS011;21053;50.848;4.652;2023-12-20T00:29:07;182.98;;;167.00;;
34836;SDS011;21053;50.848;4.652;2023-12-20T00:31:33;196.20;;;179.20;;
34836;SDS011;21053;50.848;4.652;2023-12-20T00:33:59;188.45;;;172.32;;
34836;SDS011;21053;50.848;4.652;2023-12-20T00:36:27;193.25;;;176.63;;
34836;SDS011;21053;50.848;4.652;2023-12-20T00:38:56;173.35;;;158.48;;
34836;SDS011;21053;50.848;4.652;2023-12-20T00:41:25;188.27;;;171.70;;
34836;SDS011;21053;50.848;4.652;2023-12-20T00:43:51;207.23;;;188.85;;
34836;SDS011;21053;50.848;4.652;2023-12-20T00:46:16;158.20;;;144.55;;
34836;SDS011;21053;50.848;4.652;2023-12-20T00:51:14;160.45;;;146.57;;
34836;SDS011;21053;50.848;4.652;2023-12-20T00:53:40;186.77;;;170.32;;
34836;SDS011;21053;50.848;4.652;2023-12-20T00:56:09;163.63;;;149.43;;
34836;SDS011;21053;50.848;4.652;2023-12-20T01:01:10;142.20;;;129.93;;
34836;SDS011;21053;50.848;4.652;2023-12-20T01:03:38;137.98;;;126.28;;
34836;SDS011;21053;50.848;4.652;2023-12-20T01:06:04;152.82;;;139.75;;
34836;SDS011;21053;50.848;4.652;2023-12-20T01:08:31;141.38;;;129.15;;
34836;SDS011;21053;50.848;4.652;2023-12-20T01:10:57;161.00;;;146.90;;
34836;SDS011;21053;50.848;4.652;2023-12-20T01:13:22;161.43;;;147.32;;
34836;SDS011;21053;50.848;4.652;2023-12-20T01:18:20;147.35;;;134.32;;
34836;SDS011;21053;50.848;4.652;2023-12-20T01:23:17;165.77;;;151.32;;
34836;SDS011;21053;50.848;4.652;2023-12-20T01:28:16;184.05;;;167.82;;
34836;SDS011;21053;50.848;4.652;2023-12-20T01:30:45;146.13;;;133.20;;
34836;SDS011;21053;50.848;4.652;2023-12-20T01:35:39;168.50;;;153.65;;
34836;SDS011;21053;50.848;4.652;2023-12-20T01:38:05;171.07;;;156.45;;
34836;SDS011;21053;50.848;4.652;2023-12-20T01:40:34;189.75;;;172.45;;
34836;SDS011;21053;50.848;4.652;2023-12-20T01:43:04;184.30;;;168.23;;
34836;SDS011;21053;50.848;4.652;2023-12-20T01:45:34;196.02;;;179.07;;
34836;SDS011;21053;50.848;4.652;2023-12-20T01:48:01;168.45;;;153.93;;
34836;SDS011;21053;50.848;4.652;2023-12-20T01:50:28;176.07;;;160.55;;
34836;SDS011;21053;50.848;4.652;2023-12-20T01:52:58;175.63;;;160.25;;
34836;SDS011;21053;50.848;4.652;2023-12-20T01:55:27;193.93;;;177.15;;
34836;SDS011;21053;50.848;4.652;2023-12-20T01:57:57;179.95;;;163.68;;
34836;SDS011;21053;50.848;4.652;2023-12-20T02:00:25;156.40;;;142.63;;
34836;SDS011;21053;50.848;4.652;2023-12-20T02:02:55;155.45;;;142.00;;
34836;SDS011;21053;50.848;4.652;2023-12-20T02:05:21;163.32;;;149.15;;
34836;SDS011;21053;50.848;4.652;2023-12-20T02:07:49;202.77;;;184.65;;
34836;SDS011;21053;50.848;4.652;2023-12-20T02:12:44;170.90;;;155.93;;
34836;SDS011;21053;50.848;4.652;2023-12-20T02:15:11;163.80;;;149.70;;
34836;SDS011;21053;50.848;4.652;2023-12-20T02:17:38;169.25;;;154.55;;
34836;SDS011;21053;50.848;4.652;2023-12-20T02:20:07;158.15;;;142.70;;
34836;SDS011;21053;50.848;4.652;2023-12-20T02:22:36;153.65;;;140.13;;
34836;SDS011;21053;50.848;4.652;2023-12-20T02:25:02;172.18;;;157.38;;
34836;SDS011;21053;50.848;4.652;2023-12-20T02:27:27;179.80;;;164.43;;
34836;SDS011;21053;50.848;4.652;2023-12-20T02:29:54;180.48;;;164.88;;
34836;SDS011;21053;50.848;4.652;2023-12-20T02:32:21;172.45;;;156.57;;
34836;SDS011;21053;50.848;4.652;2023-12-20T02:34:54;163.75;;;149.68;;
34836;SDS011;21053;50.848;4.652;2023-12-20T02:37:20;131.00;;;119.68;;
34836;SDS011;21053;50.848;4.652;2023-12-20T02:39:49;134.07;;;121.68;;
34836;SDS011;21053;50.848;4.652;2023-12-20T02:42:15;120.97;;;110.30;;
34836;SDS011;21053;50.848;4.652;2023-12-20T02:44:42;137.57;;;126.03;;
34836;SDS011;21053;50.848;4.652;2023-12-20T02:47:08;148.18;;;135.75;;
34836;SDS011;21053;50.848;4.652;2023-12-20T02:52:04;129.73;;;118.65;;
34836;SDS011;21053;50.848;4.652;2023-12-20T02:54:30;110.25;;;101.10;;
34836;SDS011;21053;50.848;4.652;2023-12-20T02:56:56;111.95;;;102.68;;
34836;SDS011;21053;50.848;4.652;2023-12-20T02:59:22;121.15;;;110.80;;
34836;SDS011;21053;50.848;4.652;2023-12-20T03:01:47;116.18;;;106.40;;
34836;SDS011;21053;50.848;4.652;2023-12-20T03:04:13;114.28;;;104.45;;
34836;SDS011;21053;50.848;4.652;2023-12-20T03:06:39;116.07;;;106.30;;
34836;SDS011;21053;50.848;4.652;2023-12-20T03:09:05;117.32;;;107.68;;
34836;SDS011;21053;50.848;4.652;2023-12-20T03:11:34;111.07;;;101.95;;
34836;SDS011;21053;50.848;4.652;2023-12-20T03:16:30;125.45;;;115.00;;
34836;SDS011;21053;50.848;4.652;2023-12-20T03:18:59;115.55;;;106.00;;
34836;SDS011;21053;50.848;4.652;2023-12-20T03:21:25;102.05;;;93.65;;
34836;SDS011;21053;50.848;4.652;2023-12-20T03:26:21;102.70;;;93.13;;
34836;SDS011;21053;50.848;4.652;2023-12-20T03:28:51;114.65;;;104.90;;
34836;SDS011;21053;50.848;4.652;2023-12-20T03:31:17;119.32;;;109.45;;
34836;SDS011;21053;50.848;4.652;2023-12-20T03:33:45;100.80;;;92.53;;
34836;SDS011;21053;50.848;4.652;2023-12-20T03:36:12;107.47;;;98.10;;
34836;SDS011;21053;50.848;4.652;2023-12-20T03:38:38;95.07;;;87.10;;
34836;SDS011;21053;50.848;4.652;2023-12-20T03:41:05;117.68;;;108.00;;
34836;SDS011;21053;50.848;4.652;2023-12-20T03:43:34;100.53;;;92.38;;
34836;SDS011;21053;50.848;4.652;2023-12-20T03:46:03;92.28;;;83.57;;
34836;SDS011;21053;50.848;4.652;2023-12-20T03:48:29;106.45;;;97.72;;
34836;SDS011;21053;50.848;4.652;2023-12-20T03:53:27;104.47;;;95.65;;
34836;SDS011;21053;50.848;4.652;2023-12-20T03:55:53;85.82;;;78.85;;
34836;SDS011;21053;50.848;4.652;2023-12-20T03:58:20;102.03;;;93.70;;
34836;SDS011;21053;50.848;4.652;2023-12-20T04:00:49;86.78;;;79.60;;
34836;SDS011;21053;50.848;4.652;2023-12-20T04:03:17;87.93;;;80.78;;
34836;SDS011;21053;50.848;4.652;2023-12-20T04:05:42;98.32;;;90.28;;
34836;SDS011;21053;50.848;4.652;2023-12-20T04:08:08;109.97;;;100.72;;
34836;SDS011;21053;50.848;4.652;2023-12-20T04:10:34;95.13;;;87.03;;
34836;SDS011;21053;50.848;4.652;2023-12-20T04:13:05;92.68;;;83.72;;
34836;SDS011;21053;50.848;4.652;2023-12-20T04:15:33;100.50;;;92.28;;
34836;SDS011;21053;50.848;4.652;2023-12-20T04:18:01;85.40;;;78.15;;
34836;SDS011;21053;50.848;4.652;2023-12-20T04:20:28;79.70;;;72.53;;
34836;SDS011;21053;50.848;4.652;2023-12-20T04:22:54;89.43;;;82.22;;
34836;SDS011;21053;50.848;4.652;2023-12-20T04:25:19;84.65;;;77.55;;
34836;SDS011;21053;50.848;4.652;2023-12-20T04:27:46;87.45;;;80.25;;
34836;SDS011;21053;50.848;4.652;2023-12-20T04:30:13;99.00;;;89.55;;
34836;SDS011;21053;50.848;4.652;2023-12-20T04:32:39;79.75;;;73.25;;
34836;SDS011;21053;50.848;4.652;2023-12-20T04:35:20;95.55;;;87.70;;
34836;SDS011;21053;50.848;4.652;2023-12-20T04:37:45;116.63;;;106.85;;
34836;SDS011;21053;50.848;4.652;2023-12-20T04:40:13;129.25;;;118.43;;
34836;SDS011;21053;50.848;4.652;2023-12-20T04:42:41;123.60;;;113.00;;
34836;SDS011;21053;50.848;4.652;2023-12-20T04:45:07;120.28;;;110.20;;
34836;SDS011;21053;50.848;4.652;2023-12-20T04:47:33;121.82;;;111.50;;
34836;SDS011;21053;50.848;4.652;2023-12-20T04:50:00;93.10;;;85.28;;
34836;SDS011;21053;50.848;4.652;2023-12-20T04:54:57;101.35;;;92.95;;
34836;SDS011;21053;50.848;4.652;2023-12-20T04:59:54;121.15;;;111.05;;
34836;SDS011;21053;50.848;4.652;2023-12-20T05:02:21;112.03;;;101.45;;
34836;SDS011;21053;50.848;4.652;2023-12-20T05:04:48;99.55;;;91.40;;
34836;SDS011;21053;50.848;4.652;2023-12-20T05:07:16;86.38;;;79.10;;
34836;SDS011;21053;50.848;4.652;2023-12-20T05:09:42;87.72;;;80.57;;
34836;SDS011;21053;50.848;4.652;2023-12-20T05:12:10;104.53;;;95.95;;
34836;SDS011;21053;50.848;4.652;2023-12-20T05:14:38;99.80;;;91.45;;
34836;SDS011;21053;50.848;4.652;2023-12-20T05:17:07;98.03;;;90.05;;
34836;SDS011;21053;50.848;4.652;2023-12-20T05:19:33;100.65;;;92.07;;
34836;SDS011;21053;50.848;4.652;2023-12-20T05:22:03;105.88;;;95.43;;
34836;SDS011;21053;50.848;4.652;2023-12-20T05:24:30;113.93;;;104.25;;
34836;SDS011;21053;50.848;4.652;2023-12-20T05:26:55;96.93;;;88.85;;
34836;SDS011;21053;50.848;4.652;2023-12-20T05:29:23;122.88;;;112.65;;
34836;SDS011;21053;50.848;4.652;2023-12-20T05:31:49;111.28;;;102.18;;
34836;SDS011;21053;50.848;4.652;2023-12-20T05:34:16;116.28;;;106.40;;
34836;SDS011;21053;50.848;4.652;2023-12-20T05:36:42;116.80;;;107.25;;
34836;SDS011;21053;50.848;4.652;2023-12-20T05:39:09;108.60;;;99.60;;
34836;SDS011;21053;50.848;4.652;2023-12-20T05:41:34;98.72;;;90.53;;
34836;SDS011;21053;50.848;4.652;2023-12-20T05:44:02;113.88;;;103.55;;
34836;SDS011;21053;50.848;4.652;2023-12-20T05:46:31;98.30;;;90.20;;
34836;SDS011;21053;50.848;4.652;2023-12-20T05:49:03;80.97;;;74.25;;
34836;SDS011;21053;50.848;4.652;2023-12-20T05:51:29;93.13;;;84.30;;
34836;SDS011;21053;50.848;4.652;2023-12-20T05:53:54;98.20;;;90.13;;
34836;SDS011;21053;50.848;4.652;2023-12-20T05:56:23;102.90;;;93.63;;
34836;SDS011;21053;50.848;4.652;2023-12-20T05:58:52;95.05;;;85.38;;
34836;SDS011;21053;50.848;4.652;2023-12-20T06:01:19;109.80;;;100.47;;
34836;SDS011;21053;50.848;4.652;2023-12-20T06:03:46;94.82;;;87.07;;
34836;SDS011;21053;50.848;4.652;2023-12-20T06:06:13;100.80;;;91.80;;
34836;SDS011;21053;50.848;4.652;2023-12-20T06:08:40;97.00;;;88.72;;
34836;SDS011;21053;50.848;4.652;2023-12-20T06:11:06;93.43;;;85.72;;
34836;SDS011;21053;50.848;4.652;2023-12-20T06:13:35;85.30;;;78.40;;
34836;SDS011;21053;50.848;4.652;2023-12-20T06:16:01;92.80;;;84.65;;
34836;SDS011;21053;50.848;4.652;2023-12-20T06:18:31;103.07;;;93.65;;
34836;SDS011;21053;50.848;4.652;2023-12-20T06:23:27;88.60;;;81.22;;
34836;SDS011;21053;50.848;4.652;2023-12-20T06:25:54;95.18;;;87.40;;
34836;SDS011;21053;50.848;4.652;2023-12-20T06:28:21;97.43;;;88.88;;
34836;SDS011;21053;50.848;4.652;2023-12-20T06:30:52;94.82;;;87.07;;
34836;SDS011;21053;50.848;4.652;2023-12-20T06:33:19;91.93;;;83.10;;
34836;SDS011;21053;50.848;4.652;2023-12-20T06:35:48;84.80;;;77.78;;
34836;SDS011;21053;50.848;4.652;2023-12-20T06:38:14;83.07;;;76.30;;
34836;SDS011;21053;50.848;4.652;2023-12-20T06:40:47;101.43;;;93.18;;
34836;SDS011;21053;50.848;4.652;2023-12-20T06:43:15;85.50;;;78.65;;
34836;SDS011;21053;50.848;4.652;2023-12-20T06:45:43;86.20;;;79.28;;
34836;SDS011;21053;50.848;4.652;2023-12-20T06:48:12;87.05;;;79.57;;
34836;SDS011;21053;50.848;4.652;2023-12-20T06:53:07;80.43;;;73.88;;
34836;SDS011;21053;50.848;4.652;2023-12-20T06:55:36;74.80;;;68.50;;
34836;SDS011;21053;50.848;4.652;2023-12-20T06:58:03;84.13;;;75.25;;
34836;SDS011;21053;50.848;4.652;2023-12-20T07:03:01;90.20;;;82.72;;
34836;SDS011;21053;50.848;4.652;2023-12-20T07:05:28;87.32;;;80.25;;
34836;SDS011;21053;50.848;4.652;2023-12-20T07:07:55;89.63;;;82.38;;
34836;SDS011;21053;50.848;4.652;2023-12-20T07:10:23;103.18;;;94.47;;
34836;SDS011;21053;50.848;4.652;2023-12-20T07:12:51;117.40;;;107.63;;
34836;SDS011;21053;50.848;4.652;2023-12-20T07:15:21;128.45;;;117.32;;
34836;SDS011;21053;50.848;4.652;2023-12-20T07:17:48;146.20;;;133.88;;
34836;SDS011;21053;50.848;4.652;2023-12-20T07:20:15;110.07;;;100.50;;
34836;SDS011;21053;50.848;4.652;2023-12-20T07:25:13;127.22;;;115.38;;
34836;SDS011;21053;50.848;4.652;2023-12-20T07:30:07;114.07;;;104.30;;
34836;SDS011;21053;50.848;4.652;2023-12-20T07:32:34;119.32;;;109.32;;
34836;SDS011;21053;50.848;4.652;2023-12-20T07:35:01;127.57;;;116.80;;
34836;SDS011;21053;50.848;4.652;2023-12-20T07:37:28;123.03;;;112.43;;
34836;SDS011;21053;50.848;4.652;2023-12-20T07:39:55;129.48;;;118.40;;
34836;SDS011;21053;50.848;4.652;2023-12-20T07:42:21;110.72;;;101.07;;
34836;SDS011;21053;50.848;4.652;2023-12-20T07:44:49;124.43;;;113.85;;
34836;SDS011;21053;50.848;4.652;2023-12-20T07:47:15;141.02;;;129.10;;
34836;SDS011;21053;50.848;4.652;2023-12-20T07:49:45;130.40;;;119.20;;
34836;SDS011;21053;50.848;4.652;2023-12-20T07:52:12;160.75;;;145.85;;
34836;SDS011;21053;50.848;4.652;2023-12-20T07:54:41;153.02;;;139.82;;
34836;SDS011;21053;50.848;4.652;2023-12-20T07:57:09;134.25;;;122.90;;
34836;SDS011;21053;50.848;4.652;2023-12-20T07:59:36;125.50;;;114.78;;
34836;SDS011;21053;50.848;4.652;2023-12-20T08:02:02;138.95;;;126.82;;
34836;SDS011;21053;50.848;4.652;2023-12-20T08:04:31;130.93;;;119.90;;
34836;SDS011;21053;50.848;4.652;2023-12-20T08:06:57;153.25;;;140.27;;
34836;SDS011;21053;50.848;4.652;2023-12-20T08:09:24;126.60;;;115.38;;
34836;SDS011;21053;50.848;4.652;2023-12-20T08:11:51;91.13;;;83.45;;
34836;SDS011;21053;50.848;4.652;2023-12-20T08:16:45;120.00;;;109.57;;
34836;SDS011;21053;50.848;4.652;2023-12-20T08:19:20;136.75;;;125.22;;
34836;SDS011;21053;50.848;4.652;2023-12-20T08:21:49;134.15;;;122.25;;
34836;SDS011;21053;50.848;4.652;2023-12-20T08:24:18;121.63;;;111.03;;
34836;SDS011;21053;50.848;4.652;2023-12-20T08:26:44;111.20;;;101.88;;
34836;SDS011;21053;50.848;4.652;2023-12-20T08:29:14;111.07;;;101.88;;
34836;SDS011;21053;50.848;4.652;2023-12-20T08:31:41;129.98;;;119.00;;
34836;SDS011;21053;50.848;4.652;2023-12-20T08:36:37;94.72;;;86.82;;
34836;SDS011;21053;50.848;4.652;2023-12-20T08:39:05;108.78;;;99.63;;
34836;SDS011;21053;50.848;4.652;2023-12-20T08:41:34;104.95;;;96.20;;
34836;SDS011;21053;50.848;4.652;2023-12-20T08:46:14;117.53;;;107.70;;
34836;SDS011;21053;50.848;4.652;2023-12-20T08:48:41;120.60;;;110.60;;
34836;SDS011;21053;50.848;4.652;2023-12-20T08:51:09;119.93;;;110.00;;
34836;SDS011;21053;50.848;4.652;2023-12-20T08:53:38;98.75;;;90.18;;
34836;SDS011;21053;50.848;4.652;2023-12-20T08:56:05;110.78;;;100.07;;
34836;SDS011;21053;50.848;4.652;2023-12-20T08:58:34;110.78;;;101.60;;
34836;SDS011;21053;50.848;4.652;2023-12-20T09:01:03;114.68;;;105.15;;
34836;SDS011;21053;50.848;4.652;2023-12-20T09:03:30;107.60;;;98.13;;
34836;SDS011;21053;50.848;4.652;2023-12-20T09:05:57;133.27;;;121.28;;
34836;SDS011;21053;50.848;4.652;2023-12-20T09:08:24;157.00;;;143.80;;
34836;SDS011;21053;50.848;4.652;2023-12-20T09:10:49;133.55;;;122.00;;
34836;SDS011;21053;50.848;4.652;2023-12-20T09:13:19;147.07;;;133.35;;
34836;SDS011;21053;50.848;4.652;2023-12-20T09:15:47;163.52;;;149.25;;
34836;SDS011;21053;50.848;4.652;2023-12-20T09:18:16;155.55;;;141.88;;
34836;SDS011;21053;50.848;4.652;2023-12-20T09:20:42;168.75;;;154.05;;
34836;SDS011;21053;50.848;4.652;2023-12-20T09:23:07;201.60;;;182.20;;
34836;SDS011;21053;50.848;4.652;2023-12-20T09:25:33;170.00;;;155.30;;
34836;SDS011;21053;50.848;4.652;2023-12-20T09:27:59;178.55;;;162.73;;
34836;SDS011;21053;50.848;4.652;2023-12-20T09:30:25;173.85;;;158.80;;
34836;SDS011;21053;50.848;4.652;2023-12-20T09:32:52;187.73;;;171.40;;
34836;SDS011;21053;50.848;4.652;2023-12-20T09:35:23;159.75;;;144.25;;
34836;SDS011;21053;50.848;4.652;2023-12-20T09:37:50;167.23;;;152.98;;
34836;SDS011;21053;50.848;4.652;2023-12-20T09:40:17;148.23;;;134.98;;
34836;SDS011;21053;50.848;4.652;2023-12-20T09:42:47;158.88;;;145.10;;
34836;SDS011;21053;50.848;4.652;2023-12-20T09:45:27;186.80;;;170.70;;
34836;SDS011;21053;50.848;4.652;2023-12-20T09:47:53;163.57;;;149.43;;
34836;SDS011;21053;50.848;4.652;2023-12-20T09:50:20;179.57;;;164.05;;
34836;SDS011;21053;50.848;4.652;2023-12-20T09:52:51;177.95;;;161.90;;
34836;SDS011;21053;50.848;4.652;2023-12-20T09:55:20;172.80;;;156.95;;
34836;SDS011;21053;50.848;4.652;2023-12-20T09:57:47;180.85;;;165.15;;
34836;SDS011;21053;50.848;4.652;2023-12-20T10:00:16;186.10;;;170.07;;
34836;SDS011;21053;50.848;4.652;2023-12-20T10:02:59;168.05;;;153.68;;
34836;SDS011;21053;50.848;4.652;2023-12-20T10:07:59;207.77;;;189.70;;
34836;SDS011;21053;50.848;4.652;2023-12-20T10:10:27;193.73;;;177.27;;
34836;SDS011;21053;50.848;4.652;2023-12-20T10:13:03;214.88;;;196.90;;
34836;SDS011;21053;50.848;4.652;2023-12-20T10:18:03;216.38;;;197.95;;
34836;SDS011;21053;50.848;4.652;2023-12-20T10:20:32;216.68;;;198.48;;
34836;SDS011;21053;50.848;4.652;2023-12-20T10:22:59;206.13;;;188.70;;
34836;SDS011;21053;50.848;4.652;2023-12-20T10:28:11;209.85;;;191.93;;
34836;SDS011;21053;50.848;4.652;2023-12-20T10:30:41;213.00;;;194.45;;
34836;SDS011;21053;50.848;4.652;2023-12-20T10:35:37;201.77;;;185.07;;
34836;SDS011;21053;50.848;4.652;2023-12-20T10:38:04;200.95;;;184.35;;
34836;SDS011;21053;50.848;4.652;2023-12-20T10:40:34;201.05;;;184.45;;
34836;SDS011;21053;50.848;4.652;2023-12-20T10:43:03;193.13;;;177.23;;
34836;SDS011;21053;50.848;4.652;2023-12-20T10:45:32;187.90;;;172.30;;
34836;SDS011;21053;50.848;4.652;2023-12-20T10:47:57;157.23;;;144.35;;
34836;SDS011;21053;50.848;4.652;2023-12-20T10:50:27;167.73;;;153.88;;
34836;SDS011;21053;50.848;4.652;2023-12-20T10:52:54;163.57;;;150.20;;
34836;SDS011;21053;50.848;4.652;2023-12-20T11:00:33;151.88;;;139.57;;
34836;SDS011;21053;50.848;4.652;2023-12-20T11:03:08;142.90;;;130.38;;
34836;SDS011;21053;50.848;4.652;2023-12-20T11:05:41;139.32;;;127.97;;
34836;SDS011;21053;50.848;4.652;2023-12-20T11:10:49;134.18;;;123.05;;
34836;SDS011;21053;50.848;4.652;2023-12-20T11:13:22;138.35;;;127.05;;
34836;SDS011;21053;50.848;4.652;2023-12-20T11:15:54;135.27;;;124.05;;
34836;SDS011;21053;50.848;4.652;2023-12-20T11:18:38;138.43;;;126.18;;
34836;SDS011;21053;50.848;4.652;2023-12-20T11:21:07;124.13;;;114.25;;
34836;SDS011;21053;50.848;4.652;2023-12-20T11:23:34;120.45;;;109.75;;
34836;SDS011;21053;50.848;4.652;2023-12-20T11:26:03;143.57;;;131.57;;
34836;SDS011;21053;50.848;4.652;2023-12-20T11:28:30;152.10;;;139.65;;
34836;SDS011;21053;50.848;4.652;2023-12-20T11:30:58;150.93;;;138.52;;
34836;SDS011;21053;50.848;4.652;2023-12-20T11:33:29;159.07;;;145.95;;
34836;SDS011;21053;50.848;4.652;2023-12-20T11:35:58;171.45;;;157.52;;
34836;SDS011;21053;50.848;4.652;2023-12-20T11:38:35;168.98;;;155.38;;
34836;SDS011;21053;50.848;4.652;2023-12-20T11:41:04;176.02;;;161.45;;
34836;SDS011;21053;50.848;4.652;2023-12-20T11:43:40;195.98;;;179.70;;
34836;SDS011;21053;50.848;4.652;2023-12-20T11:48:35;210.50;;;192.20;;
34836;SDS011;21053;50.848;4.652;2023-12-20T11:53:45;226.60;;;207.55;;
34836;SDS011;21053;50.848;4.652;2023-12-20T11:56:19;199.38;;;182.98;;
34836;SDS011;21053;50.848;4.652;2023-12-20T12:01:15;198.65;;;182.15;;
34836;SDS011;21053;50.848;4.652;2023-12-20T12:06:13;191.73;;;176.10;;
34836;SDS011;21053;50.848;4.652;2023-12-20T12:11:07;200.30;;;183.82;;
34836;SDS011;21053;50.848;4.652;2023-12-20T12:13:36;207.52;;;189.98;;
34836;SDS011;21053;50.848;4.652;2023-12-20T12:16:04;209.27;;;191.63;;
34836;SDS011;21053;50.848;4.652;2023-12-20T12:18:31;223.82;;;205.13;;
34836;SDS011;21053;50.848;4.652;2023-12-20T12:21:01;199.73;;;183.00;;
34836;SDS011;21053;50.848;4.652;2023-12-20T12:23:27;202.20;;;185.73;;
34836;SDS011;21053;50.848;4.652;2023-12-20T12:25:54;222.30;;;204.25;;
34836;SDS011;21053;50.848;4.652;2023-12-20T12:28:25;211.85;;;193.35;;
34836;SDS011;21053;50.848;4.652;2023-12-20T12:31:02;219.05;;;201.13;;
34836;SDS011;21053;50.848;4.652;2023-12-20T12:33:30;202.88;;;186.48;;
34836;SDS011;21053;50.848;4.652;2023-12-20T12:35:56;182.85;;;167.93;;
34836;SDS011;21053;50.848;4.652;2023-12-20T12:40:54;206.90;;;189.88;;
34836;SDS011;21053;50.848;4.652;2023-12-20T12:43:23;203.25;;;185.15;;
34836;SDS011;21053;50.848;4.652;2023-12-20T12:45:49;193.27;;;175.57;;
34836;SDS011;21053;50.848;4.652;2023-12-20T12:48:21;207.30;;;190.13;;
34836;SDS011;21053;50.848;4.652;2023-12-20T12:50:48;196.45;;;180.13;;
34836;SDS011;21053;50.848;4.652;2023-12-20T12:55:47;173.23;;;159.13;;
34836;SDS011;21053;50.848;4.652;2023-12-20T12:58:16;162.38;;;149.35;;
34836;SDS011;21053;50.848;4.652;2023-12-20T13:00:52;144.30;;;132.43;;
34836;SDS011;21053;50.848;4.652;2023-12-20T13:03:19;154.23;;;141.10;;
34836;SDS011;21053;50.848;4.652;2023-12-20T13:05:45;171.90;;;158.07;;
34836;SDS011;21053;50.848;4.652;2023-12-20T13:10:43;193.70;;;177.93;;
34836;SDS011;21053;50.848;4.652;2023-12-20T13:13:09;207.02;;;190.00;;
34836;SDS011;21053;50.848;4.652;2023-12-20T13:18:04;219.68;;;201.88;;
34836;SDS011;21053;50.848;4.652;2023-12-20T13:23:01;230.50;;;210.85;;
34836;SDS011;21053;50.848;4.652;2023-12-20T13:28:08;223.15;;;203.45;;
34836;SDS011;21053;50.848;4.652;2023-12-20T13:33:06;221.07;;;202.90;;
34836;SDS011;21053;50.848;4.652;2023-12-20T13:35:34;211.40;;;193.93;;
34836;SDS011;21053;50.848;4.652;2023-12-20T13:38:01;211.55;;;193.90;;
34836;SDS011;21053;50.848;4.652;2023-12-20T13:40:28;192.27;;;173.98;;
34836;SDS011;21053;50.848;4.652;2023-12-20T13:42:55;223.18;;;205.13;;
34836;SDS011;21053;50.848;4.652;2023-12-20T13:45:24;210.20;;;190.57;;
34836;SDS011;21053;50.848;4.652;2023-12-20T13:50:24;215.07;;;196.38;;
34836;SDS011;21053;50.848;4.652;2023-12-20T13:52:51;231.38;;;212.18;;
34836;SDS011;21053;50.848;4.652;2023-12-20T13:55:20;225.52;;;207.05;;
34836;SDS011;21053;50.848;4.652;2023-12-20T14:00:23;212.05;;;194.13;;
34836;SDS011;21053;50.848;4.652;2023-12-20T14:02:52;200.52;;;183.63;;
34836;SDS011;21053;50.848;4.652;2023-12-20T14:05:18;208.25;;;190.55;;
34836;SDS011;21053;50.848;4.652;2023-12-20T14:07:47;228.15;;;209.65;;
34836;SDS011;21053;50.848;4.652;2023-12-20T14:10:13;223.93;;;205.43;;
34836;SDS011;21053;50.848;4.652;2023-12-20T14:12:41;212.30;;;194.95;;
34836;SDS011;21053;50.848;4.652;2023-12-20T14:15:07;221.98;;;203.63;;
34836;SDS011;21053;50.848;4.652;2023-12-20T14:17:41;206.88;;;190.07;;
34836;SDS011;21053;50.848;4.652;2023-12-20T14:20:15;202.80;;;186.38;;
34836;SDS011;21053;50.848;4.652;2023-12-20T14:22:41;207.50;;;190.60;;
34836;SDS011;21053;50.848;4.652;2023-12-20T14:25:16;215.18;;;197.60;;
34836;SDS011;21053;50.848;4.652;2023-12-20T14:27:44;205.52;;;188.88;;
34836;SDS011;21053;50.848;4.652;2023-12-20T14:35:11;194.32;;;177.40;;
34836;SDS011;21053;50.848;4.652;2023-12-20T14:40:08;196.57;;;180.52;;
34836;SDS011;21053;50.848;4.652;2023-12-20T14:42:44;174.13;;;159.77;;
34836;SDS011;21053;50.848;4.652;2023-12-20T14:47:42;184.65;;;169.13;;
34836;SDS011;21053;50.848;4.652;2023-12-20T14:50:15;178.27;;;163.82;;
34836;SDS011;21053;50.848;4.652;2023-12-20T14:52:43;195.50;;;179.65;;
34836;SDS011;21053;50.848;4.652;2023-12-20T14:55:13;201.10;;;184.73;;
34836;SDS011;21053;50.848;4.652;2023-12-20T14:57:39;189.32;;;173.70;;
34836;SDS011;21053;50.848;4.652;2023-12-20T15:00:11;194.43;;;178.75;;
34836;SDS011;21053;50.848;4.652;2023-12-20T15:02:43;169.00;;;154.88;;
34836;SDS011;21053;50.848;4.652;2023-12-20T15:05:10;182.60;;;167.80;;
34836;SDS011;21053;50.848;4.652;2023-12-20T15:07:37;182.77;;;167.43;;
34836;SDS011;21053;50.848;4.652;2023-12-20T15:10:03;178.30;;;163.63;;
34836;SDS011;21053;50.848;4.652;2023-12-20T15:15:00;184.30;;;169.43;;
34836;SDS011;21053;50.848;4.652;2023-12-20T15:19:56;191.77;;;175.98;;
34836;SDS011;21053;50.848;4.652;2023-12-20T15:24:51;192.48;;;176.85;;
34836;SDS011;21053;50.848;4.652;2023-12-20T15:29:49;196.02;;;179.77;;
34836;SDS011;21053;50.848;4.652;2023-12-20T15:32:16;186.73;;;171.63;;
34836;SDS011;21053;50.848;4.652;2023-12-20T15:34:44;181.63;;;165.18;;
34836;SDS011;21053;50.848;4.652;2023-12-20T15:37:11;192.20;;;176.70;;
34836;SDS011;21053;50.848;4.652;2023-12-20T15:42:08;172.68;;;158.68;;
34836;SDS011;21053;50.848;4.652;2023-12-20T15:44:34;173.23;;;158.82;;
34836;SDS011;21053;50.848;4.652;2023-12-20T15:47:00;169.52;;;155.75;;
34836;SDS011;21053;50.848;4.652;2023-12-20T15:49:26;157.88;;;144.90;;
34836;SDS011;21053;50.848;4.652;2023-12-20T15:51:52;143.18;;;131.57;;
34836;SDS011;21053;50.848;4.652;2023-12-20T15:54:17;151.35;;;137.45;;
34836;SDS011;21053;50.848;4.652;2023-12-20T15:56:44;140.38;;;129.02;;
34836;SDS011;21053;50.848;4.652;2023-12-20T16:04:10;152.02;;;139.63;;
34836;SDS011;21053;50.848;4.652;2023-12-20T16:06:37;153.52;;;139.45;;
34836;SDS011;21053;50.848;4.652;2023-12-20T16:09:03;160.85;;;147.90;;
34836;SDS011;21053;50.848;4.652;2023-12-20T16:11:31;170.50;;;156.43;;
34836;SDS011;21053;50.848;4.652;2023-12-20T16:16:26;158.27;;;145.50;;
34836;SDS011;21053;50.848;4.652;2023-12-20T16:18:53;144.85;;;133.10;;
34836;SDS011;21053;50.848;4.652;2023-12-20T16:22:26;156.65;;;144.07;;
34836;SDS011;21053;50.848;4.652;2023-12-20T16:27:22;180.43;;;165.80;;
34836;SDS011;21053;50.848;4.652;2023-12-20T16:29:49;187.77;;;172.65;;